Terminal Aerodrome Forecast
Issued by NWS

Home | Current Version | Previous Version | Text Only | Print | Product List | Glossary On
Versions: 1 2 3 4 5 6 7 8 9 10 11 12 13 14 15
000
FTUS45 KGGW 020500
TAFSDY
TAF
KSDY 020520Z 0206/0306 26004KT P6SM SCT080
     FM021200 24009KT P6SM SCT090
     FM021400 27015KT P6SM SCT050
     FM021700 31021G30KT P6SM SCT025 BKN035
     FM030300 31016KT P6SM SCT060
      AMD LTD TO CLD VIS AND WIND=

USA.gov is the U.S. government's official web portal to all federal, state and local government web resources and services.